Time;durP1;ratioP1;P1;durP2;ratioP2;P2;SDS_P1;SDS_P2;PMS_P1;PMS_P2;Temp;Humidity;BMP_temperature;BMP_pressure;BME280_temperature;BME280_humidity;BME280_pressure;Samples;Min_cycle;Max_cycle;Signal;HPM_P1;HPM_P2
2024/01/18 00:02:17;;;;;;;36.33;20.60;;;;;;;2.10;96.81;99750.84;5084870;28;20024;-77
2024/01/18 00:04:42;;;;;;;31.83;19.20;;;;;;;2.42;96.08;99763.03;5082051;28;20078;-77
2024/01/18 00:07:08;;;;;;;35.42;19.52;;;;;;;2.64;95.34;99763.22;5061658;28;20031;-78
2024/01/18 00:09:33;;;;;;;35.28;19.88;;;;;;;2.21;97.29;99747.03;5081446;28;20047;-77
2024/01/18 00:11:58;;;;;;;33.50;19.95;;;;;;;2.46;97.11;99765.31;5064432;28;20052;-78
2024/01/18 00:14:24;;;;;;;31.48;19.23;;;;;;;2.26;99.10;99763.09;5077222;28;20060;-77
2024/01/18 00:16:49;;;;;;;34.42;19.70;;;;;;;2.45;97.63;99755.78;5052902;28;20074;-77
2024/01/18 00:19:15;;;;;;;32.88;20.02;;;;;;;2.51;95.88;99736.66;5071177;28;20028;-78
2024/01/18 00:21:40;;;;;;;39.83;22.02;;;;;;;2.74;96.22;99761.19;5074161;28;20495;-77
2024/01/18 00:24:06;;;;;;;35.97;20.27;;;;;;;2.71;94.76;99756.25;5070877;28;20024;-76
2024/01/18 00:26:32;;;;;;;35.05;21.02;;;;;;;2.57;95.38;99754.38;5071186;28;20044;-77
2024/01/18 00:28:57;;;;;;;35.65;21.70;;;;;;;2.11;99.01;99749.06;5067263;28;20476;-76
2024/01/18 00:31:23;;;;;;;40.15;23.80;;;;;;;2.14;100.00;99752.16;5083935;28;20052;-77
2024/01/18 00:33:48;;;;;;;40.80;24.38;;;;;;;1.93;100.00;99742.22;5071010;28;20037;-77
2024/01/18 00:36:13;;;;;;;40.53;21.30;;;;;;;1.93;100.00;99768.50;5070813;28;20055;-76
2024/01/18 00:38:39;;;;;;;40.03;22.10;;;;;;;1.74;100.00;99747.88;5052194;28;20721;-78
2024/01/18 00:41:04;;;;;;;39.95;21.48;;;;;;;2.21;100.00;99754.94;5073659;28;20028;-78
2024/01/18 00:43:30;;;;;;;37.75;21.73;;;;;;;2.28;100.00;99740.06;5091224;28;20434;-77
2024/01/18 00:45:55;;;;;;;32.72;20.98;;;;;;;2.15;100.00;99742.47;5091082;28;20067;-78
2024/01/18 00:48:21;;;;;;;36.95;21.88;;;;;;;2.46;100.00;99741.63;5082939;28;20024;-77
2024/01/18 00:50:46;;;;;;;34.90;21.00;;;;;;;2.14;100.00;99720.56;5070763;28;20028;-78
2024/01/18 00:53:12;;;;;;;35.95;20.75;;;;;;;1.94;100.00;99717.56;5090186;28;20115;-77
2024/01/18 00:55:37;;;;;;;35.33;20.63;;;;;;;2.33;100.00;99727.22;5090748;28;20043;-77
2024/01/18 00:58:02;;;;;;;36.88;21.00;;;;;;;2.14;100.00;99701.34;5090217;28;20050;-77
2024/01/18 01:00:28;;;;;;;30.50;19.10;;;;;;;2.18;100.00;99723.69;5072092;28;20039;-77
2024/01/18 01:02:53;;;;;;;37.92;21.00;;;;;;;2.51;100.00;99719.03;5089118;28;20452;-77
2024/01/18 01:05:19;;;;;;;35.13;21.48;;;;;;;2.41;100.00;99723.72;5090332;28;20035;-78
2024/01/18 01:07:45;;;;;;;36.70;21.48;;;;;;;1.95;100.00;99687.63;5090122;28;20504;-77
2024/01/18 01:10:10;;;;;;;30.70;18.83;;;;;;;2.12;100.00;99708.59;5052324;28;20040;-77
2024/01/18 01:12:36;;;;;;;29.63;16.98;;;;;;;1.93;100.00;99715.09;5073145;28;20520;-77
2024/01/18 01:15:01;;;;;;;27.15;16.75;;;;;;;2.08;100.00;99704.66;5069640;28;20040;-77
2024/01/18 01:17:26;;;;;;;29.58;17.52;;;;;;;2.03;100.00;99689.41;5069538;28;20028;-76
2024/01/18 01:19:52;;;;;;;29.23;17.55;;;;;;;2.08;100.00;99696.78;5069468;28;20111;-78
2024/01/18 01:22:18;;;;;;;32.92;19.77;;;;;;;2.51;100.00;99705.06;5061449;28;20024;-77
2024/01/18 01:24:43;;;;;;;34.92;20.98;;;;;;;2.33;100.00;99700.91;5072583;28;20534;-76
2024/01/18 01:27:08;;;;;;;30.08;18.70;;;;;;;2.03;100.00;99675.44;5089854;28;20016;-77
2024/01/18 01:29:34;;;;;;;34.35;19.20;;;;;;;2.21;100.00;99687.34;5089599;28;20028;-77
2024/01/18 01:32:00;;;;;;;31.67;19.27;;;;;;;2.28;100.00;99661.13;5085912;28;20113;-77
2024/01/18 01:34:25;;;;;;;48.10;26.50;;;;;;;2.20;100.00;99669.91;5069938;28;20036;-77
2024/01/18 01:36:51;;;;;;;173.85;69.88;;;;;;;2.41;100.00;99674.53;5070014;28;20487;-78
2024/01/18 01:39:17;;;;;;;63.40;30.60;;;;;;;2.16;100.00;99652.00;5069839;28;20018;-77
2024/01/18 01:41:42;;;;;;;62.15;30.75;;;;;;;2.31;100.00;99650.28;5072469;28;20028;-77
2024/01/18 01:44:08;;;;;;;47.72;25.80;;;;;;;2.17;100.00;99658.94;5090848;28;20039;-77
2024/01/18 01:46:34;;;;;;;43.22;22.45;;;;;;;2.16;100.00;99655.44;5090036;28;20020;-76
2024/01/18 01:49:05;;;;;;;43.80;25.23;;;;;;;2.65;100.00;99659.53;5083987;28;20433;-76
2024/01/18 01:51:48;;;;;;;45.85;26.00;;;;;;;2.39;100.00;99642.31;5071073;28;20489;-77
2024/01/18 01:54:15;;;;;;;44.53;25.95;;;;;;;2.15;100.00;99631.97;5091399;28;20032;-76
2024/01/18 01:56:42;;;;;;;45.30;25.65;;;;;;;2.52;100.00;99651.44;5091381;28;20440;-77
2024/01/18 01:59:09;;;;;;;43.47;25.35;;;;;;;2.92;100.00;99654.69;5099403;28;20092;-77
2024/01/18 02:01:36;;;;;;;40.50;24.02;;;;;;;2.71;100.00;99648.31;5101568;28;20024;-77
2024/01/18 02:04:02;;;;;;;40.42;23.50;;;;;;;2.31;100.00;99623.13;5082829;28;20119;-77
2024/01/18 02:06:29;;;;;;;36.35;23.90;;;;;;;2.59;100.00;99639.19;5082865;28;20429;-77
2024/01/18 02:08:55;;;;;;;41.97;22.98;;;;;;;2.61;100.00;99634.56;5082829;28;20028;-77
2024/01/18 02:11:21;;;;;;;34.88;21.25;;;;;;;2.44;100.00;99639.16;5082921;28;20040;-76
2024/01/18 02:13:48;;;;;;;37.35;22.73;;;;;;;2.46;100.00;99615.31;5096880;28;20059;-76
2024/01/18 02:16:13;;;;;;;36.75;23.52;;;;;;;2.76;100.00;99621.47;5102845;28;20020;-77
2024/01/18 02:18:39;;;;;;;39.35;23.58;;;;;;;2.69;100.00;99610.81;5083156;28;20549;-77
2024/01/18 02:21:07;;;;;;;37.92;23.35;;;;;;;2.94;100.00;99621.09;5079985;28;20028;-78
2024/01/18 02:23:34;;;;;;;37.10;22.90;;;;;;;2.66;100.00;99611.19;5086040;28;20024;-77
2024/01/18 02:26:00;;;;;;;39.30;23.60;;;;;;;2.87;100.00;99607.84;5077545;28;20446;-77
2024/01/18 02:28:25;;;;;;;35.38;21.90;;;;;;;2.55;100.00;99612.41;5059539;28;20062;-77
2024/01/18 02:30:50;;;;;;;41.65;23.83;;;;;;;2.75;100.00;99601.38;5079835;28;20070;-77
2024/01/18 02:33:16;;;;;;;40.47;24.30;;;;;;;2.87;100.00;99607.03;5089366;28;20063;-78
2024/01/18 02:35:41;;;;;;;37.75;21.95;;;;;;;2.66;100.00;99579.59;5098358;28;20090;-77
2024/01/18 02:38:07;;;;;;;36.80;23.17;;;;;;;2.91;100.00;99592.50;5096328;28;20110;-78
2024/01/18 02:40:32;;;;;;;34.88;21.90;;;;;;;2.65;100.00;99577.94;5079148;28;20032;-78
2024/01/18 02:42:58;;;;;;;36.88;23.02;;;;;;;2.92;100.00;99573.06;5079312;28;20035;-77
2024/01/18 02:45:24;;;;;;;40.35;23.73;;;;;;;3.08;100.00;99591.31;5073143;28;20055;-78
2024/01/18 02:47:49;;;;;;;51.22;27.88;;;;;;;3.39;100.00;99612.22;5091141;28;20081;-77
2024/01/18 02:50:15;;;;;;;59.92;29.23;;;;;;;3.13;100.00;99602.13;5078951;28;20020;-77
2024/01/18 02:52:40;;;;;;;85.68;40.75;;;;;;;3.03;100.00;99604.22;5054297;28;20028;-77
2024/01/18 02:55:07;;;;;;;49.85;26.23;;;;;;;2.77;100.00;99602.00;5089259;28;20523;-77
2024/01/18 02:57:32;;;;;;;44.80;25.83;;;;;;;3.04;100.00;99592.69;5089478;28;20028;-77
2024/01/18 02:59:58;;;;;;;62.83;30.75;;;;;;;3.32;100.00;99610.50;5089314;28;20056;-77
2024/01/18 03:02:23;;;;;;;71.80;31.70;;;;;;;3.25;99.08;99593.75;5070594;28;20131;-77
2024/01/18 03:04:49;;;;;;;60.45;32.28;;;;;;;3.29;99.69;99601.13;5090150;28;20036;-77
2024/01/18 03:07:14;;;;;;;64.22;35.30;;;;;;;3.35;100.00;99615.38;5093022;28;20032;-77
2024/01/18 03:09:39;;;;;;;72.60;34.63;;;;;;;3.24;100.00;99597.41;5075095;28;20115;-76
2024/01/18 03:12:05;;;;;;;57.30;30.02;;;;;;;3.21;100.00;99602.03;5092587;28;20673;-77
2024/01/18 03:14:31;;;;;;;50.70;25.95;;;;;;;3.32;100.00;99600.75;5092296;28;20088;-78
2024/01/18 03:16:56;;;;;;;51.22;27.70;;;;;;;3.37;100.00;99608.13;5092363;28;20556;-77
2024/01/18 03:19:22;;;;;;;55.30;31.48;;;;;;;3.38;100.00;99609.75;5092059;28;20035;-78
2024/01/18 03:21:47;;;;;;;47.20;27.67;;;;;;;3.47;100.00;99613.09;5092635;28;20392;-78
2024/01/18 03:24:13;;;;;;;58.63;30.55;;;;;;;3.47;99.99;99613.91;5080579;28;20052;-78
2024/01/18 03:26:38;;;;;;;45.40;27.23;;;;;;;3.33;99.36;99580.50;5054508;28;20025;-77
2024/01/18 03:29:05;;;;;;;57.00;29.85;;;;;;;3.36;99.66;99583.56;5072432;28;20493;-77
2024/01/18 03:31:30;;;;;;;52.45;27.40;;;;;;;3.28;100.00;99575.78;5072501;28;20107;-77
2024/01/18 03:33:56;;;;;;;64.68;30.23;;;;;;;3.51;97.92;99588.81;5063594;28;20115;-77
2024/01/18 03:36:21;;;;;;;75.75;36.50;;;;;;;3.61;97.75;99591.19;5074148;28;20055;-78
2024/01/18 03:38:46;;;;;;;48.70;25.50;;;;;;;3.48;98.44;99583.94;5092987;28;20127;-77
2024/01/18 03:41:15;;;;;;;43.22;24.50;;;;;;;3.25;100.00;99588.50;5079422;28;20023;-77
2024/01/18 03:43:40;;;;;;;37.28;21.95;;;;;;;3.25;100.00;99577.94;5078053;28;20024;-79
2024/01/18 03:46:05;;;;;;;37.78;23.65;;;;;;;3.50;98.08;99557.41;5074489;28;20030;-77
2024/01/18 03:48:31;;;;;;;37.67;22.45;;;;;;;3.33;96.98;99543.59;5092702;28;20047;-78
2024/01/18 03:50:56;;;;;;;38.53;23.83;;;;;;;3.57;96.69;99574.91;5082312;28;20111;-78
2024/01/18 03:53:22;;;;;;;36.90;22.38;;;;;;;3.42;97.26;99572.31;5057593;28;20075;-77
2024/01/18 03:55:47;;;;;;;37.17;23.00;;;;;;;3.56;97.49;99575.91;5072239;28;20031;-78
2024/01/18 03:58:12;;;;;;;43.35;24.42;;;;;;;3.57;95.97;99580.16;5072253;28;20401;-77
2024/01/18 04:00:41;;;;;;;40.15;23.45;;;;;;;3.37;100.00;99597.56;5078236;28;20055;-78
2024/01/18 04:03:06;;;;;;;41.03;26.42;;;;;;;3.37;100.00;99594.94;5091525;28;20032;-77
2024/01/18 04:05:32;;;;;;;36.45;23.55;;;;;;;3.32;100.00;99578.88;5072980;28;20094;-78
2024/01/18 04:07:57;;;;;;;42.30;25.23;;;;;;;3.16;100.00;99569.34;5073884;28;20056;-78
2024/01/18 04:10:23;;;;;;;35.42;22.42;;;;;;;3.06;100.00;99551.16;5091880;28;20028;-78
2024/01/18 04:12:48;;;;;;;34.25;21.83;;;;;;;3.08;100.00;99578.13;5073791;28;20030;-77
2024/01/18 04:15:14;;;;;;;36.65;22.80;;;;;;;2.90;100.00;99591.69;5058823;28;20425;-77
2024/01/18 04:17:39;;;;;;;39.95;24.02;;;;;;;3.16;100.00;99585.94;5071460;28;20529;-77
2024/01/18 04:20:06;;;;;;;39.35;24.67;;;;;;;3.13;100.00;99585.53;5071371;28;20060;-77
2024/01/18 04:22:32;;;;;;;40.15;25.40;;;;;;;3.13;100.00;99578.44;5070720;28;20497;-78
2024/01/18 04:24:57;;;;;;;35.22;23.70;;;;;;;3.34;100.00;99585.59;5073780;28;20068;-77
2024/01/18 04:27:23;;;;;;;38.45;25.10;;;;;;;3.26;100.00;99576.97;5071350;28;20773;-78
2024/01/18 04:29:48;;;;;;;44.75;30.60;;;;;;;3.26;100.00;99558.53;5071426;28;20409;-77
2024/01/18 04:32:14;;;;;;;47.70;29.67;;;;;;;3.46;100.00;99582.50;5052549;28;20028;-78
2024/01/18 04:34:39;;;;;;;44.97;30.13;;;;;;;3.56;100.00;99573.28;5073238;28;20032;-77
2024/01/18 04:37:05;;;;;;;45.30;29.67;;;;;;;3.36;100.00;99574.88;5053153;28;20037;-78
2024/01/18 04:39:30;;;;;;;50.63;30.10;;;;;;;3.44;100.00;99560.78;5070890;28;20024;-77
2024/01/18 04:41:55;;;;;;;45.38;28.05;;;;;;;3.28;100.00;99556.50;5071487;28;20496;-77
2024/01/18 04:44:21;;;;;;;44.15;28.13;;;;;;;3.41;100.00;99548.75;5073360;28;20067;-78
2024/01/18 04:46:47;;;;;;;52.65;31.55;;;;;;;3.46;100.00;99579.84;5070585;28;20516;-77
2024/01/18 04:49:12;;;;;;;51.63;32.38;;;;;;;3.72;100.00;99564.34;5070787;28;20078;-77
2024/01/18 04:51:39;;;;;;;54.47;32.35;;;;;;;3.52;100.00;99560.66;5070283;28;20039;-76
2024/01/18 04:54:04;;;;;;;50.67;33.83;;;;;;;3.42;100.00;99559.13;5072564;28;20035;-77
2024/01/18 04:56:31;;;;;;;52.25;30.88;;;;;;;3.19;100.00;99522.38;5070832;28;20020;-76
2024/01/18 04:58:56;;;;;;;53.65;35.03;;;;;;;3.42;100.00;99548.56;5052142;28;20036;-77
2024/01/18 05:01:22;;;;;;;49.55;32.13;;;;;;;3.70;100.00;99581.31;5070288;28;20033;-77
2024/01/18 05:03:47;;;;;;;51.47;31.85;;;;;;;3.71;100.00;99557.41;5070616;28;20042;-77
2024/01/18 05:06:13;;;;;;;56.97;33.42;;;;;;;3.79;100.00;99573.13;5072931;28;20033;-77
2024/01/18 05:08:38;;;;;;;52.80;34.38;;;;;;;3.79;100.00;99564.41;5070553;28;20057;-76
2024/01/18 05:11:03;;;;;;;59.42;38.85;;;;;;;3.87;100.00;99572.19;5038896;28;20039;-77
2024/01/18 05:13:29;;;;;;;54.67;35.20;;;;;;;3.61;100.00;99539.25;5090831;28;20028;-76
2024/01/18 05:15:55;;;;;;;58.60;39.00;;;;;;;3.88;100.00;99550.06;5077061;28;20441;-77
2024/01/18 05:18:21;;;;;;;58.17;37.28;;;;;;;3.89;100.00;99548.28;5070453;28;20086;-77
2024/01/18 05:20:46;;;;;;;53.58;34.70;;;;;;;3.60;100.00;99540.28;5070214;28;20417;-77
2024/01/18 05:23:11;;;;;;;49.55;32.90;;;;;;;3.61;100.00;99552.44;5069622;28;20037;-77
2024/01/18 05:25:37;;;;;;;50.50;33.75;;;;;;;3.34;100.00;99508.34;5071547;28;20028;-78
2024/01/18 05:28:02;;;;;;;50.45;32.85;;;;;;;3.45;100.00;99546.56;5069485;28;20028;-77
2024/01/18 05:30:28;;;;;;;47.97;31.23;;;;;;;3.61;100.00;99536.63;5051597;28;20139;-78
2024/01/18 05:32:54;;;;;;;50.28;33.42;;;;;;;3.55;100.00;99537.34;5069919;28;20043;-77
2024/01/18 05:35:19;;;;;;;48.80;32.53;;;;;;;3.68;100.00;99533.22;5078355;28;20524;-76
2024/01/18 05:37:45;;;;;;;53.53;32.85;;;;;;;3.66;100.00;99517.63;5089624;28;20036;-78
2024/01/18 05:40:11;;;;;;;48.85;32.92;;;;;;;3.86;100.00;99528.34;5089426;28;20028;-78
2024/01/18 05:42:36;;;;;;;52.65;32.22;;;;;;;3.93;100.00;99545.06;5058915;28;20086;-78
2024/01/18 05:45:02;;;;;;;50.92;32.15;;;;;;;3.85;100.00;99533.81;5073433;28;20032;-77
2024/01/18 05:47:27;;;;;;;49.95;32.88;;;;;;;3.76;100.00;99539.22;5088781;28;20028;-77
2024/01/18 05:49:53;;;;;;;54.88;36.30;;;;;;;3.79;100.00;99538.84;5071180;28;20071;-79
2024/01/18 05:52:18;;;;;;;49.65;31.23;;;;;;;3.58;100.00;99509.81;5088871;28;20032;-77
2024/01/18 05:54:44;;;;;;;50.80;32.58;;;;;;;3.86;100.00;99538.88;5070250;28;20052;-77
2024/01/18 05:57:09;;;;;;;57.35;34.63;;;;;;;3.78;100.00;99517.91;5088750;28;20028;-78
2024/01/18 05:59:35;;;;;;;52.38;32.40;;;;;;;3.79;100.00;99538.03;5089989;28;20020;-77
2024/01/18 06:02:00;;;;;;;54.28;31.65;;;;;;;3.57;100.00;99524.81;5083476;28;20551;-77
2024/01/18 06:04:26;;;;;;;52.60;32.55;;;;;;;3.71;100.00;99520.50;5069296;28;20548;-77
2024/01/18 06:06:52;;;;;;;56.15;35.08;;;;;;;3.76;100.00;99538.38;5086294;28;20173;-78
2024/01/18 06:09:18;;;;;;;64.85;37.28;;;;;;;3.67;100.00;99519.22;5089112;28;20024;-77
2024/01/18 06:11:44;;;;;;;54.17;33.97;;;;;;;3.88;100.00;99542.16;5088719;28;20020;-78
2024/01/18 06:14:10;;;;;;;49.90;32.03;;;;;;;3.86;100.00;99538.88;5088249;28;20086;-78
2024/01/18 06:16:35;;;;;;;53.70;32.38;;;;;;;3.90;100.00;99541.97;5084296;28;20028;-77
2024/01/18 06:19:01;;;;;;;50.42;30.77;;;;;;;3.86;100.00;99538.88;5088903;28;20028;-78
2024/01/18 06:21:26;;;;;;;50.83;34.17;;;;;;;3.87;100.00;99545.81;5088754;28;20673;-77
2024/01/18 06:23:52;;;;;;;54.70;33.25;;;;;;;3.60;100.00;99550.00;5070005;28;20032;-78
2024/01/18 06:26:17;;;;;;;129.75;66.60;;;;;;;3.91;100.00;99552.34;5079151;28;20408;-77
2024/01/18 06:28:43;;;;;;;75.80;41.38;;;;;;;3.72;100.00;99537.13;5088474;28;20024;-77
2024/01/18 06:31:08;;;;;;;65.43;33.72;;;;;;;3.98;100.00;99563.78;5087780;28;20027;-78
2024/01/18 06:33:34;;;;;;;64.20;32.10;;;;;;;3.97;100.00;99546.31;5073726;28;20494;-77
2024/01/18 06:35:59;;;;;;;139.68;47.20;;;;;;;4.06;100.00;99540.91;5075121;28;20153;-77
2024/01/18 06:38:26;;;;;;;75.63;32.17;;;;;;;3.98;100.00;99547.13;5069792;28;20024;-78
2024/01/18 06:40:51;;;;;;;71.65;31.60;;;;;;;4.15;100.00;99553.78;5088727;28;20020;-77
2024/01/18 06:43:17;;;;;;;97.40;37.28;;;;;;;3.91;100.00;99552.34;5088108;28;20055;-77
2024/01/18 06:45:42;;;;;;;56.33;28.23;;;;;;;3.69;100.00;99526.97;5085693;28;20056;-77
2024/01/18 06:48:08;;;;;;;47.45;26.75;;;;;;;3.87;100.00;99555.56;5088233;28;20031;-76
2024/01/18 06:50:35;;;;;;;46.88;27.95;;;;;;;3.78;100.00;99546.94;5088014;28;20035;-76
2024/01/18 06:53:02;;;;;;;39.75;25.92;;;;;;;3.89;100.00;99543.81;5080060;28;20024;-77
2024/01/18 06:55:28;;;;;;;41.47;27.27;;;;;;;3.60;100.00;99524.44;5068740;28;20036;-76
2024/01/18 06:57:53;;;;;;;40.60;26.48;;;;;;;3.86;100.00;99530.16;5087500;28;20118;-78
2024/01/18 07:00:19;;;;;;;41.60;25.40;;;;;;;4.06;100.00;99543.56;5087784;28;20103;-77
2024/01/18 07:02:46;;;;;;;57.53;30.65;;;;;;;3.93;100.00;99523.16;5082931;28;20024;-77
2024/01/18 07:05:12;;;;;;;110.57;41.65;;;;;;;4.19;100.00;99528.66;5067937;28;20405;-77
2024/01/18 07:07:38;;;;;;;174.63;62.03;;;;;;;4.41;100.00;99545.28;5085675;28;20028;-77
2024/01/18 07:10:04;;;;;;;45.42;26.83;;;;;;;4.08;100.00;99534.44;5088497;28;20028;-78
2024/01/18 07:12:30;;;;;;;41.85;26.58;;;;;;;4.11;100.00;99541.97;5088245;28;20035;-76
2024/01/18 07:14:56;;;;;;;54.58;30.48;;;;;;;4.17;100.00;99533.31;5087892;28;20043;-78
2024/01/18 07:17:21;;;;;;;49.28;28.15;;;;;;;4.02;100.00;99516.72;5085909;28;20210;-77
2024/01/18 07:19:47;;;;;;;51.47;28.30;;;;;;;4.13;100.00;99520.69;5087644;28;20099;-78
2024/01/18 07:22:12;;;;;;;39.88;24.98;;;;;;;4.33;100.00;99540.16;5069950;28;20040;-76
2024/01/18 07:24:38;;;;;;;45.90;26.60;;;;;;;4.26;100.00;99522.63;5087806;28;20032;-77
2024/01/18 07:27:09;;;;;;;41.67;27.38;;;;;;;4.41;100.00;99542.66;5068876;28;20464;-77
2024/01/18 07:29:34;;;;;;;46.78;27.90;;;;;;;3.81;100.00;99536.00;5087996;28;20028;-77
2024/01/18 07:31:59;;;;;;;43.20;25.30;;;;;;;3.76;100.00;99518.13;5087955;28;20040;-77
2024/01/18 07:34:26;;;;;;;43.22;27.30;;;;;;;4.08;100.00;99509.88;5087251;28;20035;-78
2024/01/18 07:36:52;;;;;;;41.90;25.70;;;;;;;4.25;100.00;99521.81;5080155;28;20523;-78
2024/01/18 07:39:18;;;;;;;47.70;28.60;;;;;;;4.00;100.00;99516.94;5067738;28;20115;-77
2024/01/18 07:41:44;;;;;;;47.38;30.00;;;;;;;4.41;100.00;99525.97;5067462;28;20413;-76
2024/01/18 07:44:10;;;;;;;43.95;27.67;;;;;;;4.39;100.00;99491.88;5067138;28;20493;-78
2024/01/18 07:46:35;;;;;;;49.17;29.65;;;;;;;4.58;100.00;99522.03;5072316;28;20036;-77
2024/01/18 07:49:01;;;;;;;52.45;32.42;;;;;;;4.73;100.00;99535.13;5086083;28;20059;-76
2024/01/18 07:51:27;;;;;;;44.17;29.27;;;;;;;4.88;100.00;99536.84;5066173;28;20181;-77
2024/01/18 07:53:53;;;;;;;39.70;25.33;;;;;;;4.70;100.00;99529.41;5061760;28;20081;-77
2024/01/18 07:56:18;;;;;;;44.30;27.50;;;;;;;4.69;100.00;99514.59;5062240;28;20020;-77
2024/01/18 07:58:44;;;;;;;41.88;27.30;;;;;;;4.78;100.00;99539.81;5089095;28;20111;-78
2024/01/18 08:01:10;;;;;;;41.85;27.13;;;;;;;4.94;99.81;99530.78;5085022;28;20055;-77
2024/01/18 08:03:35;;;;;;;40.85;26.38;;;;;;;5.00;98.82;99527.34;5083190;28;20075;-77
2024/01/18 08:06:01;;;;;;;36.30;24.83;;;;;;;5.11;99.95;99532.09;5091763;28;20166;-77
2024/01/18 08:08:26;;;;;;;43.03;28.65;;;;;;;5.00;98.20;99500.94;5075541;28;20051;-78
2024/01/18 08:10:52;;;;;;;42.30;27.23;;;;;;;5.16;97.00;99513.00;5070553;28;20119;-78
2024/01/18 08:13:17;;;;;;;38.65;25.25;;;;;;;5.37;96.61;99519.97;5070484;28;20147;-79
2024/01/18 08:15:42;;;;;;;37.50;25.30;;;;;;;5.45;95.43;99535.69;5052908;28;20394;-77
2024/01/18 08:18:08;;;;;;;40.00;25.48;;;;;;;5.67;92.58;99540.84;5073450;28;20695;-77
2024/01/18 08:20:33;;;;;;;38.92;25.00;;;;;;;5.59;94.66;99547.94;5062676;28;20412;-78
2024/01/18 08:22:59;;;;;;;35.22;23.70;;;;;;;5.46;94.89;99529.38;5090470;28;20024;-77
2024/01/18 08:25:24;;;;;;;36.03;24.27;;;;;;;5.43;94.82;99532.41;5072211;28;20495;-78
2024/01/18 08:27:54;;;;;;;41.00;25.15;;;;;;;5.37;94.98;99530.56;5080754;28;20040;-78
2024/01/18 08:30:20;;;;;;;38.97;25.23;;;;;;;5.64;93.90;99528.84;5069597;28;20039;-78
2024/01/18 08:32:45;;;;;;;37.28;25.95;;;;;;;5.43;92.66;99520.03;5070339;28;20028;-77
2024/01/18 08:35:11;;;;;;;34.67;23.23;;;;;;;5.56;93.74;99503.38;5070203;28;20528;-77
2024/01/18 08:37:37;;;;;;;32.78;23.08;;;;;;;5.60;93.54;99498.50;5073111;28;20024;-77
2024/01/18 08:40:03;;;;;;;36.15;24.40;;;;;;;5.53;94.19;99477.31;5070261;28;20406;-79
2024/01/18 08:42:29;;;;;;;40.58;25.88;;;;;;;5.63;93.67;99461.06;5052047;28;20107;-77
2024/01/18 08:44:54;;;;;;;38.78;26.55;;;;;;;5.74;93.25;99467.56;5070071;28;20032;-76
2024/01/18 08:47:21;;;;;;;35.00;21.85;;;;;;;5.68;89.76;99447.22;5073495;28;20020;-78
2024/01/18 08:49:47;;;;;;;36.75;23.83;;;;;;;5.84;93.12;99433.59;5070085;28;20028;-77
2024/01/18 08:52:12;;;;;;;34.45;23.52;;;;;;;6.10;91.55;99461.13;5051973;28;20059;-77
2024/01/18 08:54:38;;;;;;;37.53;25.67;;;;;;;6.03;94.50;99446.06;5070260;28;20042;-78
2024/01/18 08:57:03;;;;;;;50.90;34.90;;;;;;;5.99;92.11;99455.41;5053155;28;21250;-78
2024/01/18 08:59:28;;;;;;;44.72;30.15;;;;;;;5.91;91.13;99450.31;5089993;28;20032;-78
2024/01/18 09:01:55;;;;;;;37.53;25.60;;;;;;;5.94;90.62;99447.22;5079924;28;20030;-78
2024/01/18 09:04:20;;;;;;;39.88;25.55;;;;;;;5.80;91.57;99445.59;5086707;28;20032;-78
2024/01/18 09:06:46;;;;;;;37.15;24.75;;;;;;;5.99;90.35;99450.13;5078934;28;20054;-77
2024/01/18 09:09:13;;;;;;;38.72;26.17;;;;;;;6.28;88.84;99439.31;5062876;28;20032;-76
2024/01/18 09:11:39;;;;;;;52.25;28.85;;;;;;;5.68;93.46;99423.41;5083792;28;20030;-77
2024/01/18 09:14:06;;;;;;;34.70;23.65;;;;;;;5.38;94.84;99405.28;5089524;28;20597;-77
2024/01/18 09:16:31;;;;;;;33.80;23.65;;;;;;;5.67;94.59;99368.88;5090191;28;20028;-77
2024/01/18 09:18:58;;;;;;;37.58;24.40;;;;;;;5.70;94.57;99365.81;5076317;28;20082;-78
2024/01/18 09:21:23;;;;;;;38.22;24.58;;;;;;;5.66;96.79;99344.28;5069744;28;20032;-77
2024/01/18 09:23:48;;;;;;;39.70;27.10;;;;;;;5.73;99.12;99329.19;5069833;28;20086;-77
2024/01/18 09:26:14;;;;;;;40.22;29.20;;;;;;;5.77;98.34;99296.00;5053856;28;20735;-77
2024/01/18 09:28:40;;;;;;;42.97;28.90;;;;;;;5.82;100.00;99290.94;5072384;28;20048;-78
2024/01/18 09:31:06;;;;;;;50.05;34.05;;;;;;;6.01;96.73;99302.50;5068859;28;20032;-77
2024/01/18 09:33:31;;;;;;;38.05;24.52;;;;;;;5.88;96.26;99299.06;5069493;28;20039;-76
2024/01/18 09:35:57;;;;;;;33.72;22.00;;;;;;;5.94;96.21;99325.50;5068889;28;20039;-78
2024/01/18 09:38:22;;;;;;;33.38;23.95;;;;;;;6.01;92.38;99321.03;5077034;28;20043;-77
2024/01/18 09:40:48;;;;;;;42.33;26.05;;;;;;;6.08;92.21;99344.03;5071731;28;20066;-78
2024/01/18 09:43:15;;;;;;;37.05;24.80;;;;;;;6.02;90.77;99327.94;5088629;28;20024;-78
2024/01/18 09:45:47;;;;;;;35.72;23.45;;;;;;;5.90;88.99;99307.59;5082291;28;20035;-78
2024/01/18 09:48:13;;;;;;;50.30;30.95;;;;;;;6.24;91.96;99323.22;5059899;28;20028;-78
2024/01/18 09:50:45;;;;;;;143.82;62.22;;;;;;;6.43;89.57;99329.44;5083455;28;20028;-77
2024/01/18 09:53:14;;;;;;;70.43;40.55;;;;;;;6.38;90.27;99329.28;5089200;28;20031;-77
2024/01/18 09:55:39;;;;;;;38.15;25.60;;;;;;;6.39;88.72;99317.66;5088843;28;20032;-78
2024/01/18 09:58:11;;;;;;;58.47;38.88;;;;;;;6.63;87.88;99315.31;5086957;28;20434;-78
2024/01/18 10:00:42;;;;;;;94.07;62.45;;;;;;;6.61;88.58;99298.81;5089512;28;20114;-78
2024/01/18 10:03:07;;;;;;;323.60;197.65;;;;;;;6.67;90.26;99308.56;5070872;28;20089;-77
2024/01/18 10:05:33;;;;;;;304.67;219.55;;;;;;;6.73;90.12;99302.44;5089139;28;20465;-79
2024/01/18 10:07:58;;;;;;;108.38;81.65;;;;;;;6.73;89.07;99288.38;5088059;28;20036;-77
2024/01/18 10:10:24;;;;;;;69.18;50.83;;;;;;;6.43;91.27;99265.88;5069678;28;20036;-78
2024/01/18 10:12:50;;;;;;;42.83;29.88;;;;;;;6.53;92.65;99260.13;5068096;28;20035;-78
2024/01/18 10:15:32;;;;;;;52.05;34.38;;;;;;;6.45;92.08;99273.63;5068105;28;20048;-76
2024/01/18 10:17:59;;;;;;;52.45;33.10;;;;;;;6.40;92.33;99276.91;5068606;28;20043;-77
2024/01/18 10:20:26;;;;;;;42.92;27.50;;;;;;;6.50;90.94;99271.16;5088560;28;20089;-77
2024/01/18 10:22:52;;;;;;;62.92;44.33;;;;;;;6.56;89.45;99256.25;5088483;28;20519;-78
2024/01/18 10:25:21;;;;;;;40.28;26.63;;;;;;;6.48;90.70;99253.84;5070259;28;20016;-77
2024/01/18 10:27:46;;;;;;;;;;;;;;;6.63;88.87;99270.28;5089090;28;20035;-78
2024/01/18 10:30:12;;;;;;;41.70;28.35;;;;;;;6.74;87.81;99256.38;5071612;28;19908;-78
2024/01/18 10:32:39;;;;;;;46.92;31.42;;;;;;;6.79;87.65;99268.97;5068143;28;20035;-77
2024/01/18 10:35:05;;;;;;;40.67;27.05;;;;;;;6.94;87.65;99266.00;5068312;28;20081;-77
2024/01/18 10:37:32;;;;;;;43.65;27.20;;;;;;;6.93;88.46;99259.91;5068170;28;20055;-77
2024/01/18 10:39:57;;;;;;;41.85;27.75;;;;;;;6.61;87.04;99262.53;5082761;28;20051;-78
2024/01/18 10:42:23;;;;;;;41.40;26.42;;;;;;;6.48;88.95;99264.44;5088055;28;20067;-78
2024/01/18 10:44:50;;;;;;;34.85;25.20;;;;;;;7.00;85.21;99275.75;5070068;28;20412;-78
2024/01/18 10:47:16;;;;;;;41.70;26.20;;;;;;;7.08;84.46;99270.19;5069770;28;20029;-77
2024/01/18 10:49:45;;;;;;;37.33;24.67;;;;;;;7.12;84.70;99255.47;5070728;28;20090;-77
2024/01/18 10:52:11;;;;;;;42.67;27.17;;;;;;;7.10;82.38;99236.31;5068083;28;20083;-77
2024/01/18 10:54:37;;;;;;;46.58;30.60;;;;;;;7.29;83.61;99241.66;5067865;28;20028;-78
2024/01/18 10:57:03;;;;;;;45.75;28.20;;;;;;;7.33;83.34;99245.50;5070370;28;20099;-78
2024/01/18 10:59:30;;;;;;;46.67;29.55;;;;;;;7.30;83.36;99230.03;5078337;28;20042;-78
2024/01/18 11:02:00;;;;;;;45.08;29.90;;;;;;;7.33;83.89;99208.38;5087764;28;20117;-77
2024/01/18 11:04:27;;;;;;;49.85;28.55;;;;;;;7.43;84.69;99235.22;5087952;28;20465;-78
2024/01/18 11:06:55;;;;;;;49.03;32.20;;;;;;;7.48;83.18;99218.63;5074997;28;20697;-78
2024/01/18 11:09:24;;;;;;;49.35;32.75;;;;;;;8.08;82.11;99180.81;5074003;28;20100;-77
2024/01/18 11:11:51;;;;;;;49.28;33.95;;;;;;;8.52;80.07;99202.72;5069647;28;20024;-78
2024/01/18 11:14:18;;;;;;;75.70;47.22;;;;;;;8.52;80.04;99192.91;5087717;28;20055;-77